createdAt,value
2023-05-03T00:01:23.122Z,11.13
2023-05-03T00:02:57.301Z,10.35
2023-05-03T00:04:31.701Z,13.25
2023-05-03T00:06:12.181Z,13.43
2023-05-03T00:07:47.210Z,13.88
2023-05-03T00:09:21.109Z,11.93
2023-05-03T00:11:00.782Z,11.95
2023-05-03T00:12:33.522Z,10.70
2023-05-03T00:14:05.346Z,14.05
2023-05-03T00:15:38.023Z,10.27
2023-05-03T00:17:10.797Z,12.75
2023-05-03T00:18:43.514Z,15.68
2023-05-03T00:20:17.540Z,11.13
2023-05-03T00:21:50.253Z,14.80
2023-05-03T00:23:24.522Z,13.20
2023-05-03T00:24:57.266Z,12.95
2023-05-03T00:26:29.032Z,13.30
2023-05-03T00:28:01.751Z,12.32
2023-05-03T00:29:34.465Z,10.55
2023-05-03T00:31:11.319Z,11.65
2023-05-03T00:32:44.088Z,12.95
2023-05-03T00:34:16.966Z,11.80
2023-05-03T00:35:49.672Z,13.07
2023-05-03T00:37:21.513Z,14.25
2023-05-03T00:38:56.464Z,11.95
2023-05-03T00:40:29.228Z,12.65
2023-05-03T00:42:03.988Z,12.82
2023-05-03T00:43:37.698Z,14.07
2023-05-03T00:45:11.151Z,11.25
2023-05-03T00:46:43.917Z,10.82
2023-05-03T00:48:18.700Z,14.63
2023-05-03T00:49:51.661Z,11.10
2023-05-03T00:51:26.094Z,11.43
2023-05-03T00:52:59.474Z,12.57
2023-05-03T00:54:35.169Z,9.85
2023-05-03T00:56:08.766Z,15.85
2023-05-03T00:57:41.425Z,13.15
2023-05-03T00:59:14.280Z,12.32
2023-05-03T01:00:47.780Z,13.45
2023-05-03T01:02:21.494Z,14.23
2023-05-03T01:03:54.327Z,11.95
2023-05-03T01:05:34.377Z,14.43
2023-05-03T01:07:15.990Z,10.75
2023-05-03T01:09:00.304Z,13.00
2023-05-03T01:10:42.915Z,9.75
2023-05-03T01:12:29.890Z,11.80
2023-05-03T01:14:11.252Z,9.98
2023-05-03T01:15:51.533Z,12.98
2023-05-03T01:17:29.391Z,10.82
2023-05-03T01:19:05.921Z,13.02
2023-05-03T01:20:39.011Z,13.93
2023-05-03T01:22:18.327Z,14.57
2023-05-03T01:23:57.772Z,10.48
2023-05-03T01:25:32.616Z,15.75
2023-05-03T01:27:05.577Z,15.52
2023-05-03T01:28:38.282Z,11.30
2023-05-03T01:30:13.052Z,11.68
2023-05-03T01:31:54.326Z,14.63
2023-05-03T01:33:34.558Z,15.98
2023-05-03T01:35:13.242Z,11.95
2023-05-03T01:36:46.701Z,11.20
2023-05-03T01:38:19.888Z,15.50
2023-05-03T01:39:58.116Z,11.10
2023-05-03T01:41:33.074Z,9.70
2023-05-03T01:43:06.584Z,9.38
2023-05-03T01:44:40.643Z,12.02
2023-05-03T01:46:13.833Z,15.07
2023-05-03T01:47:46.637Z,11.07
2023-05-03T01:49:19.315Z,12.18
2023-05-03T01:50:52.014Z,10.55
2023-05-03T01:52:24.915Z,12.85
2023-05-03T01:53:57.612Z,13.32
2023-05-03T01:55:30.301Z,13.80
2023-05-03T01:57:04.359Z,11.00
2023-05-03T01:58:37.242Z,10.70
2023-05-03T02:00:11.141Z,12.55
2023-05-03T02:01:43.099Z,10.50
2023-05-03T02:03:16.051Z,14.57
2023-05-03T02:04:48.824Z,17.33
2023-05-03T02:06:21.666Z,12.10
2023-05-03T02:07:53.438Z,13.60
2023-05-03T02:09:26.586Z,13.13
2023-05-03T02:10:59.313Z,12.27
2023-05-03T02:12:33.339Z,14.60
2023-05-03T02:14:06.024Z,14.45
2023-05-03T02:15:38.743Z,13.77
2023-05-03T02:17:11.515Z,11.65
2023-05-03T02:18:44.493Z,16.52
2023-05-03T02:20:17.513Z,14.55
2023-05-03T02:21:50.200Z,10.77
2023-05-03T02:23:22.892Z,14.90
2023-05-03T02:24:55.606Z,12.00
2023-05-03T02:26:28.282Z,12.30
2023-05-03T02:28:02.385Z,11.00
2023-05-03T02:29:35.410Z,15.40
2023-05-03T02:31:08.104Z,11.15
2023-05-03T02:32:39.926Z,13.18
2023-05-03T02:34:12.664Z,13.07
2023-05-03T02:35:44.395Z,11.40
2023-05-03T02:37:17.240Z,10.90
2023-05-03T02:38:48.996Z,10.95
2023-05-03T02:40:21.723Z,11.80
2023-05-03T02:41:54.440Z,12.13
2023-05-03T02:43:28.532Z,10.15
2023-05-03T02:45:01.233Z,12.27
2023-05-03T02:46:33.976Z,12.63
2023-05-03T02:48:07.185Z,11.35
2023-05-03T02:49:39.923Z,13.57
2023-05-03T02:51:12.620Z,11.55
2023-05-03T02:52:45.407Z,14.10
2023-05-03T02:54:18.138Z,11.07
2023-05-03T02:55:51.249Z,10.98
2023-05-03T02:57:24.068Z,10.40
2023-05-03T02:58:58.058Z,14.63
2023-05-03T03:00:30.757Z,10.70
2023-05-03T03:02:02.632Z,13.88
2023-05-03T03:03:35.478Z,9.15
2023-05-03T03:05:09.673Z,11.85
2023-05-03T03:06:42.505Z,11.68
2023-05-03T03:08:15.193Z,12.15
2023-05-03T03:09:47.864Z,12.77
2023-05-03T03:11:20.758Z,11.55
2023-05-03T03:12:53.511Z,12.07
2023-05-03T03:14:27.508Z,11.55
2023-05-03T03:16:00.314Z,10.15
2023-05-03T03:17:33.092Z,12.73
2023-05-03T03:19:05.876Z,11.95
2023-05-03T03:20:38.650Z,11.70
2023-05-03T03:22:10.383Z,12.82
2023-05-03T03:23:43.082Z,13.35
2023-05-03T03:25:15.928Z,11.95
2023-05-03T03:26:48.648Z,13.65
2023-05-03T03:28:21.484Z,11.15
2023-05-03T03:29:55.524Z,10.93
2023-05-03T03:31:28.251Z,13.70
2023-05-03T03:33:01.020Z,12.55
2023-05-03T03:34:34.033Z,14.63
2023-05-03T03:36:07.716Z,11.65
2023-05-03T03:37:40.414Z,14.13
2023-05-03T03:39:13.115Z,16.23
2023-05-03T03:40:45.836Z,11.13
2023-05-03T03:42:19.192Z,10.20
2023-05-03T03:43:52.178Z,11.93
2023-05-03T03:45:26.288Z,11.63
2023-05-03T03:46:59.033Z,15.80
2023-05-03T03:48:31.809Z,11.55
2023-05-03T03:50:04.049Z,14.23
2023-05-03T03:51:37.043Z,11.38
2023-05-03T03:53:11.006Z,12.55
2023-05-03T03:54:44.286Z,13.15
2023-05-03T03:56:16.129Z,13.38
2023-05-03T03:57:49.051Z,11.70
2023-05-03T03:59:21.842Z,10.30
2023-05-03T04:00:56.200Z,11.48
2023-05-03T04:02:29.143Z,12.23
2023-05-03T04:04:01.174Z,12.50
2023-05-03T04:05:34.115Z,11.48
2023-05-03T04:07:06.790Z,11.60
2023-05-03T04:08:39.470Z,10.48
2023-05-03T04:10:12.195Z,12.48
2023-05-03T04:11:43.972Z,11.70
2023-05-03T04:13:16.637Z,14.10
2023-05-03T04:14:49.361Z,12.73
2023-05-03T04:16:24.464Z,12.00
2023-05-03T04:17:57.295Z,11.70
2023-05-03T04:19:29.056Z,14.13
2023-05-03T04:21:01.789Z,10.80
2023-05-03T04:22:33.687Z,10.80
2023-05-03T04:24:09.761Z,13.48
2023-05-03T04:25:46.678Z,12.98
2023-05-03T04:27:19.391Z,10.18
2023-05-03T04:28:52.278Z,15.52
2023-05-03T04:30:25.745Z,10.93
2023-05-03T04:32:01.218Z,13.00
2023-05-03T04:33:34.551Z,14.23
2023-05-03T04:35:10.812Z,13.27
2023-05-03T04:36:45.600Z,9.63
2023-05-03T04:38:18.774Z,9.60
2023-05-03T04:39:51.455Z,15.90
2023-05-03T04:41:24.865Z,11.40
2023-05-03T04:42:58.581Z,14.02
2023-05-03T04:44:31.669Z,13.98
2023-05-03T04:46:03.836Z,11.32
2023-05-03T04:47:38.058Z,13.15
2023-05-03T04:49:10.768Z,13.70
2023-05-03T04:50:43.464Z,11.57
2023-05-03T04:52:15.184Z,12.55
2023-05-03T04:53:47.874Z,14.68
2023-05-03T04:55:20.595Z,15.02
2023-05-03T04:56:54.371Z,12.88
2023-05-03T04:58:27.082Z,15.40
2023-05-03T04:59:59.750Z,13.88
2023-05-03T05:01:32.738Z,9.38
2023-05-03T05:03:07.094Z,9.88
2023-05-03T05:04:39.940Z,13.20
2023-05-03T05:06:12.856Z,13.82
2023-05-03T05:07:46.050Z,11.68
2023-05-03T05:09:23.395Z,11.68
2023-05-03T05:10:56.159Z,12.25
2023-05-03T05:12:29.387Z,14.55
2023-05-03T05:14:02.051Z,16.35
2023-05-03T05:15:34.902Z,18.75
2023-05-03T05:17:07.674Z,11.93
2023-05-03T05:18:41.758Z,11.07
2023-05-03T05:20:15.269Z,11.68
2023-05-03T05:21:49.571Z,11.48
2023-05-03T05:23:22.262Z,10.63
2023-05-03T05:24:54.964Z,13.73
2023-05-03T05:26:28.407Z,11.85
2023-05-03T05:28:01.094Z,12.65
2023-05-03T05:29:33.895Z,13.50
2023-05-03T05:31:07.586Z,9.35
2023-05-03T05:32:40.347Z,13.10
2023-05-03T05:34:14.385Z,13.80
2023-05-03T05:35:48.317Z,12.95
2023-05-03T05:37:21.130Z,11.02
2023-05-03T05:38:53.879Z,14.93
2023-05-03T05:40:26.945Z,11.02
2023-05-03T05:41:59.620Z,13.02
2023-05-03T05:43:32.321Z,14.77
2023-05-03T05:45:07.755Z,11.07
2023-05-03T05:46:40.461Z,11.80
2023-05-03T05:48:13.379Z,14.05
2023-05-03T05:49:47.406Z,9.25
2023-05-03T05:51:20.187Z,9.98
2023-05-03T05:52:53.810Z,11.73
2023-05-03T05:54:28.067Z,9.82
2023-05-03T05:56:01.378Z,9.60
2023-05-03T05:57:34.052Z,12.55
2023-05-03T05:59:06.823Z,11.57
2023-05-03T06:00:39.617Z,11.45
2023-05-03T06:02:17.683Z,11.63
2023-05-03T06:03:50.401Z,13.13
2023-05-03T06:05:24.694Z,15.60
2023-05-03T06:06:57.398Z,11.82
2023-05-03T06:08:30.132Z,9.63
2023-05-03T06:10:04.148Z,11.20
2023-05-03T06:11:38.277Z,11.48
2023-05-03T06:13:11.084Z,12.82
2023-05-03T06:14:55.430Z,9.55
2023-05-03T06:16:34.565Z,10.45
2023-05-03T06:18:07.567Z,9.75
2023-05-03T06:19:40.253Z,11.18
2023-05-03T06:21:14.338Z,11.50
2023-05-03T06:22:47.030Z,12.40
2023-05-03T06:24:21.039Z,11.40
2023-05-03T06:25:54.050Z,10.13
2023-05-03T06:27:26.776Z,12.50
2023-05-03T06:29:00.697Z,16.10
2023-05-03T06:30:33.409Z,17.02
2023-05-03T06:32:06.860Z,9.60
2023-05-03T06:33:39.576Z,9.55
2023-05-03T06:35:12.449Z,12.00
2023-05-03T06:36:46.524Z,10.35
2023-05-03T06:38:19.291Z,10.43
2023-05-03T06:39:52.194Z,9.05
2023-05-03T06:41:24.968Z,12.82
2023-05-03T06:42:57.641Z,10.55
2023-05-03T06:44:30.363Z,11.60
2023-05-03T06:46:03.222Z,9.40
2023-05-03T06:47:37.114Z,11.73
2023-05-03T06:49:10.004Z,12.05
2023-05-03T06:50:42.779Z,9.43
2023-05-03T06:52:16.889Z,9.88
2023-05-03T06:53:49.586Z,12.25
2023-05-03T06:55:22.286Z,11.88
2023-05-03T06:56:54.977Z,9.30
2023-05-03T06:58:27.654Z,10.90
2023-05-03T07:00:00.569Z,10.63
2023-05-03T07:01:33.915Z,9.60
2023-05-03T07:03:07.027Z,8.43
2023-05-03T07:04:39.896Z,8.40
2023-05-03T07:06:12.633Z,10.02
2023-05-03T07:07:46.689Z,9.30
2023-05-03T07:09:22.072Z,9.75
2023-05-03T07:11:01.700Z,9.23
2023-05-03T07:12:34.414Z,12.40
2023-05-03T07:14:07.222Z,13.50
2023-05-03T07:15:39.917Z,9.73
2023-05-03T07:17:13.038Z,9.15
2023-05-03T07:18:46.505Z,8.00
2023-05-03T07:20:19.307Z,9.83
2023-05-03T07:21:52.232Z,12.07
2023-05-03T07:23:26.314Z,8.80
2023-05-03T07:24:59.641Z,8.03
2023-05-03T07:26:32.566Z,11.30
2023-05-03T07:28:05.553Z,9.90
2023-05-03T07:29:38.258Z,11.80
2023-05-03T07:31:11.010Z,10.00
2023-05-03T07:32:43.806Z,7.23
2023-05-03T07:34:16.551Z,10.07
2023-05-03T07:35:50.561Z,9.53
2023-05-03T07:37:23.327Z,7.43
2023-05-03T07:38:58.644Z,10.50
2023-05-03T07:40:33.143Z,9.27
2023-05-03T07:42:06.212Z,11.90
2023-05-03T07:43:38.905Z,10.27
2023-05-03T07:45:11.919Z,8.13
2023-05-03T07:46:44.629Z,10.80
2023-05-03T07:48:17.444Z,13.33
2023-05-03T07:49:50.796Z,9.17
2023-05-03T07:51:23.491Z,7.37
2023-05-03T07:52:56.520Z,7.57
2023-05-03T07:54:30.593Z,8.80
2023-05-03T07:56:03.289Z,8.03
2023-05-03T07:57:36.121Z,10.13
2023-05-03T07:59:10.617Z,7.67
2023-05-03T08:00:43.612Z,11.67
2023-05-03T08:02:16.405Z,8.90
2023-05-03T08:03:50.540Z,6.87
2023-05-03T08:05:24.232Z,9.70
2023-05-03T08:06:57.016Z,6.00
2023-05-03T08:08:31.484Z,9.20
2023-05-03T08:10:06.303Z,9.27
2023-05-03T08:11:40.574Z,7.37
2023-05-03T08:13:14.429Z,11.17
2023-05-03T08:14:47.525Z,7.43
2023-05-03T08:16:20.350Z,7.73
2023-05-03T08:17:53.201Z,9.80
2023-05-03T08:19:26.002Z,6.20
2023-05-03T08:20:58.741Z,9.30
2023-05-03T08:22:31.448Z,8.80
2023-05-03T08:24:05.950Z,8.87
2023-05-03T08:25:39.996Z,8.73
2023-05-03T08:27:12.728Z,7.47
2023-05-03T08:28:45.427Z,9.90
2023-05-03T08:30:18.109Z,10.47
2023-05-03T08:31:50.936Z,9.43
2023-05-03T08:33:23.837Z,8.03
2023-05-03T08:34:56.806Z,9.47
2023-05-03T08:36:29.598Z,11.77
2023-05-03T08:38:02.364Z,7.87
2023-05-03T08:39:35.065Z,7.90
2023-05-03T08:41:17.886Z,11.90
2023-05-03T08:42:51.045Z,8.93
2023-05-03T08:44:25.751Z,9.30
2023-05-03T08:45:58.644Z,11.10
2023-05-03T08:47:35.751Z,7.43
2023-05-03T08:49:09.088Z,9.63
2023-05-03T08:50:42.762Z,9.07
2023-05-03T08:52:18.254Z,8.50
2023-05-03T08:53:51.278Z,8.03
2023-05-03T08:55:24.003Z,7.57
2023-05-03T08:56:58.169Z,10.93
2023-05-03T08:58:31.294Z,8.40
2023-05-03T09:00:10.378Z,8.50
2023-05-03T09:01:44.023Z,11.33
2023-05-03T09:03:16.821Z,9.83
2023-05-03T09:04:49.723Z,10.67
2023-05-03T09:06:25.809Z,7.87
2023-05-03T09:08:02.457Z,7.87
2023-05-03T09:09:35.405Z,7.50
2023-05-03T09:11:21.430Z,8.83
2023-05-03T09:12:59.330Z,7.40
2023-05-03T09:14:32.054Z,8.93
2023-05-03T09:16:04.966Z,8.53
2023-05-03T09:17:37.751Z,9.67
2023-05-03T09:19:12.312Z,9.33
2023-05-03T09:20:51.379Z,12.07
2023-05-03T09:22:27.121Z,8.63
2023-05-03T09:24:01.559Z,10.63
2023-05-03T09:25:45.506Z,9.47
2023-05-03T09:27:22.172Z,9.07
2023-05-03T09:28:56.748Z,9.20
2023-05-03T09:30:29.474Z,10.43
2023-05-03T09:32:05.390Z,10.73
2023-05-03T09:33:38.181Z,12.40
2023-05-03T09:35:11.328Z,9.37
2023-05-03T09:36:48.364Z,9.03
2023-05-03T09:38:28.138Z,8.67
2023-05-03T09:40:08.583Z,9.17
2023-05-03T09:41:41.381Z,9.33
2023-05-03T09:43:17.461Z,8.30
2023-05-03T09:44:52.796Z,7.83
2023-05-03T09:46:26.163Z,8.47
2023-05-03T09:47:59.032Z,9.33
2023-05-03T09:49:32.569Z,9.47
2023-05-03T09:51:06.533Z,8.87
2023-05-03T09:52:40.332Z,8.93
2023-05-03T09:54:13.374Z,9.60
2023-05-03T09:55:47.548Z,8.60
2023-05-03T09:57:21.172Z,9.80
2023-05-03T09:58:54.866Z,9.87
2023-05-03T10:00:30.577Z,9.67
2023-05-03T10:02:05.988Z,10.47
2023-05-03T10:03:41.850Z,8.20
2023-05-03T10:05:16.200Z,7.80
2023-05-03T10:06:50.976Z,8.60
2023-05-03T10:08:28.593Z,9.90
2023-05-03T10:10:02.088Z,8.20
2023-05-03T10:11:37.135Z,10.13
2023-05-03T10:13:11.375Z,8.50
2023-05-03T10:14:46.888Z,8.87
2023-05-03T10:16:25.355Z,8.50
2023-05-03T10:18:01.948Z,8.57
2023-05-03T10:19:38.530Z,8.50
2023-05-03T10:21:17.276Z,9.97
2023-05-03T10:23:09.707Z,11.40
2023-05-03T10:25:09.713Z,9.23
2023-05-03T10:26:43.211Z,8.50
2023-05-03T10:28:16.001Z,8.40
2023-05-03T10:29:53.656Z,9.83
2023-05-03T10:31:47.108Z,11.23
2023-05-03T10:33:35.129Z,11.40
2023-05-03T10:35:10.202Z,7.93
2023-05-03T10:36:49.914Z,10.50
2023-05-03T10:38:24.356Z,10.67
2023-05-03T10:39:59.491Z,10.83
2023-05-03T10:41:34.402Z,9.27
2023-05-03T10:43:07.380Z,10.23
2023-05-03T10:44:42.253Z,10.17
2023-05-03T10:46:35.769Z,9.57
2023-05-03T10:48:22.637Z,9.17
2023-05-03T10:50:27.130Z,8.77
2023-05-03T10:51:59.801Z,7.90
2023-05-03T10:53:37.633Z,9.37
2023-05-03T10:55:11.978Z,11.40
2023-05-03T10:56:52.687Z,9.37
2023-05-03T10:58:25.628Z,9.43
2023-05-03T10:59:59.164Z,10.30
2023-05-03T11:01:32.006Z,12.07
2023-05-03T11:03:35.859Z,10.53
2023-05-03T11:05:11.755Z,8.07
2023-05-03T11:06:46.340Z,11.83
2023-05-03T11:08:21.493Z,11.03
2023-05-03T11:09:54.321Z,10.73
2023-05-03T11:11:26.108Z,10.60
2023-05-03T11:12:58.834Z,10.23
2023-05-03T11:14:31.528Z,8.83
2023-05-03T11:16:05.835Z,9.57
2023-05-03T11:17:39.567Z,11.17
2023-05-03T11:19:14.274Z,8.73
2023-05-03T11:20:47.787Z,10.33
2023-05-03T11:22:20.788Z,9.70
2023-05-03T11:23:53.505Z,12.83
2023-05-03T11:25:26.972Z,8.93
2023-05-03T11:26:59.665Z,10.50
2023-05-03T11:28:41.294Z,10.20
2023-05-03T11:30:14.879Z,8.37
2023-05-03T11:31:47.623Z,12.87
2023-05-03T11:33:20.705Z,14.60
2023-05-03T11:34:54.948Z,9.80
2023-05-03T11:36:29.027Z,13.90
2023-05-03T11:38:01.989Z,9.30
2023-05-03T11:39:34.740Z,9.53
2023-05-03T11:41:14.945Z,9.77
2023-05-03T11:42:54.492Z,10.23
2023-05-03T11:44:27.227Z,11.53
2023-05-03T11:46:00.677Z,10.63
2023-05-03T11:47:33.517Z,7.83
2023-05-03T11:49:06.307Z,8.83
2023-05-03T11:50:47.640Z,11.00
2023-05-03T11:52:23.228Z,7.87
2023-05-03T11:53:56.792Z,10.83
2023-05-03T11:55:31.223Z,9.97
2023-05-03T11:57:13.302Z,10.07
2023-05-03T11:58:53.606Z,11.10
2023-05-03T12:00:27.229Z,9.63
2023-05-03T12:02:02.652Z,9.20
2023-05-03T12:03:36.164Z,11.87
2023-05-03T12:05:10.985Z,10.47
2023-05-03T12:06:52.692Z,9.73
2023-05-03T12:08:31.267Z,10.90
2023-05-03T12:10:20.278Z,8.17
2023-05-03T12:11:56.116Z,9.57
2023-05-03T12:13:34.592Z,10.07
2023-05-03T12:15:11.166Z,7.53
2023-05-03T12:16:50.801Z,8.00
2023-05-03T12:18:24.416Z,12.67
2023-05-03T12:22:09.277Z,8.63
2023-05-03T12:23:50.333Z,9.57
2023-05-03T12:25:25.878Z,9.47
2023-05-03T12:27:02.735Z,12.33
2023-05-03T12:28:36.000Z,11.13
2023-05-03T12:30:10.634Z,8.30
2023-05-03T12:31:44.569Z,10.23
2023-05-03T12:33:21.888Z,9.27
2023-05-03T12:34:57.175Z,6.10
2023-05-03T12:36:32.286Z,11.40
2023-05-03T12:38:09.898Z,7.20
2023-05-03T12:39:45.919Z,11.60
2023-05-03T12:42:04.626Z,9.00
2023-05-03T12:43:20.003Z,10.63
2023-05-03T12:44:53.681Z,7.47
2023-05-03T12:46:34.515Z,8.37
2023-05-03T12:48:08.169Z,7.17
2023-05-03T12:49:44.429Z,8.67
2023-05-03T12:51:20.501Z,7.77
2023-05-03T12:52:59.216Z,7.27
2023-05-03T12:54:39.331Z,7.43
2023-05-03T12:56:14.783Z,6.87
2023-05-03T12:57:55.264Z,9.70
2023-05-03T12:59:43.080Z,6.73
2023-05-03T13:02:02.962Z,9.00
2023-05-03T13:03:21.231Z,8.17
2023-05-03T13:04:59.540Z,9.53
2023-05-03T13:06:41.277Z,8.37
2023-05-03T13:08:21.159Z,8.37
2023-05-03T13:11:32.465Z,7.80
2023-05-03T13:13:05.411Z,8.17
2023-05-03T13:14:38.668Z,9.70
2023-05-03T13:16:11.512Z,8.03
2023-05-03T13:17:46.582Z,10.83
2023-05-03T13:19:20.032Z,10.37
2023-05-03T13:20:52.752Z,9.73
2023-05-03T13:22:25.521Z,22.27
2023-05-03T13:23:58.651Z,10.57
2023-05-03T13:25:32.886Z,11.00
2023-05-03T13:27:05.714Z,8.17
2023-05-03T13:28:40.839Z,7.53
2023-05-03T13:30:14.407Z,11.53
2023-05-03T13:31:47.282Z,6.30
2023-05-03T13:33:20.168Z,8.97
2023-05-03T13:34:53.016Z,10.63
2023-05-03T13:36:26.807Z,8.87
2023-05-03T13:37:59.484Z,9.23
2023-05-03T13:39:32.478Z,9.30
2023-05-03T13:41:08.812Z,8.50
2023-05-03T13:42:41.657Z,7.47
2023-05-03T13:44:14.428Z,5.63
2023-05-03T13:45:47.146Z,7.17
2023-05-03T13:47:19.838Z,7.80
2023-05-03T13:48:53.315Z,7.37
2023-05-03T13:50:26.110Z,7.67
2023-05-03T13:51:58.856Z,9.47
2023-05-03T13:53:31.555Z,8.10
2023-05-03T13:55:04.539Z,8.80
2023-05-03T13:56:38.662Z,6.33
2023-05-03T13:58:11.544Z,7.67
2023-05-03T13:59:44.328Z,8.57
2023-05-03T14:01:17.786Z,6.63
2023-05-03T14:02:51.292Z,10.67
2023-05-03T14:04:25.439Z,6.30
2023-05-03T14:05:58.241Z,6.37
2023-05-03T14:07:31.190Z,8.93
2023-05-03T14:09:04.675Z,7.17
2023-05-03T14:10:37.741Z,8.70
2023-05-03T14:12:11.819Z,8.63
2023-05-03T14:13:56.340Z,9.53
2023-05-03T14:15:30.015Z,8.90
2023-05-03T14:17:02.819Z,6.17
2023-05-03T14:18:35.684Z,8.73
2023-05-03T14:20:11.872Z,8.53
2023-05-03T14:21:49.224Z,7.10
2023-05-03T14:23:21.966Z,7.13
2023-05-03T14:24:54.711Z,10.07
2023-05-03T14:26:29.194Z,9.23
2023-05-03T14:28:03.250Z,6.63
2023-05-03T14:29:36.084Z,9.20
2023-05-03T14:31:09.132Z,6.40
2023-05-03T14:32:41.863Z,10.20
2023-05-03T14:34:14.728Z,6.70
2023-05-03T14:35:47.435Z,8.30
2023-05-03T14:37:20.222Z,7.53
2023-05-03T14:38:52.969Z,8.77
2023-05-03T14:40:25.753Z,11.07
2023-05-03T14:41:58.413Z,8.80
2023-05-03T14:43:32.934Z,10.03
2023-05-03T14:45:07.168Z,7.47
2023-05-03T14:46:41.920Z,8.57
2023-05-03T14:48:14.725Z,8.40
2023-05-03T14:49:47.410Z,7.80
2023-05-03T14:51:20.149Z,7.23
2023-05-03T14:52:52.826Z,7.53
2023-05-03T14:54:25.565Z,6.63
2023-05-03T14:55:58.293Z,8.23
2023-05-03T14:57:31.827Z,9.13
2023-05-03T14:59:06.742Z,7.80
2023-05-03T15:00:39.583Z,7.80
2023-05-03T15:02:12.407Z,8.40
2023-05-03T15:03:45.107Z,8.63
2023-05-03T15:05:17.909Z,6.63
2023-05-03T15:06:50.593Z,11.13
2023-05-03T15:08:23.308Z,7.13
2023-05-03T15:09:56.051Z,6.53
2023-05-03T15:11:28.752Z,7.70
2023-05-03T15:13:01.527Z,7.50
2023-05-03T15:14:35.674Z,5.63
2023-05-03T15:16:08.752Z,9.80
2023-05-03T15:17:41.431Z,8.90
2023-05-03T15:19:14.232Z,5.00
2023-05-03T15:20:47.522Z,6.83
2023-05-03T15:22:20.317Z,8.93
2023-05-03T15:23:53.873Z,9.13
2023-05-03T15:25:27.261Z,6.33
2023-05-03T15:27:02.599Z,5.73
2023-05-03T15:28:35.348Z,5.30
2023-05-03T15:30:12.110Z,7.77
2023-05-03T15:31:44.952Z,7.57
2023-05-03T15:33:17.718Z,8.03
2023-05-03T15:34:50.447Z,8.03
2023-05-03T15:36:23.135Z,5.67
2023-05-03T15:37:55.830Z,4.67
2023-05-03T15:39:28.597Z,4.83
2023-05-03T15:41:01.294Z,5.73
2023-05-03T15:42:33.975Z,5.50
2023-05-03T15:44:08.146Z,5.33
2023-05-03T15:45:42.215Z,6.23
2023-05-03T15:47:14.897Z,8.50
2023-05-03T15:48:47.625Z,5.60
2023-05-03T15:50:20.477Z,5.60
2023-05-03T15:51:53.164Z,6.73
2023-05-03T15:53:26.833Z,6.50
2023-05-03T15:54:59.509Z,6.13
2023-05-03T15:56:32.649Z,7.23
2023-05-03T15:58:07.334Z,7.57
2023-05-03T15:59:40.129Z,5.33
2023-05-03T16:01:14.341Z,8.33
2023-05-03T16:02:47.072Z,4.70
2023-05-03T16:04:18.838Z,6.90
2023-05-03T16:05:51.557Z,6.37
2023-05-03T16:07:24.302Z,7.13
2023-05-03T16:08:56.974Z,5.57
2023-05-03T16:10:30.112Z,4.60
2023-05-03T16:12:02.977Z,6.17
2023-05-03T16:13:35.984Z,6.10
2023-05-03T16:15:10.005Z,7.07
2023-05-03T16:16:45.667Z,5.27
2023-05-03T16:18:18.830Z,6.77
2023-05-03T16:19:51.602Z,8.47
2023-05-03T16:21:24.324Z,4.13
2023-05-03T16:22:57.265Z,5.53
2023-05-03T16:24:30.057Z,7.07
2023-05-03T16:26:12.202Z,5.70
2023-05-03T16:27:45.029Z,6.70
2023-05-03T16:29:18.383Z,8.83
2023-05-03T16:30:51.656Z,6.53
2023-05-03T16:32:26.280Z,6.37
2023-05-03T16:33:59.020Z,6.03
2023-05-03T16:35:31.839Z,4.93
2023-05-03T16:37:04.557Z,5.73
2023-05-03T16:38:38.049Z,4.77
2023-05-03T16:40:11.454Z,5.10
2023-05-03T16:41:44.280Z,5.23
2023-05-03T16:43:18.318Z,5.73
2023-05-03T16:44:51.034Z,5.23
2023-05-03T16:46:23.790Z,3.50
2023-05-03T16:47:57.838Z,5.57
2023-05-03T16:49:33.814Z,6.53
2023-05-03T16:51:06.695Z,4.67
2023-05-03T16:52:40.146Z,4.57
2023-05-03T16:54:16.213Z,4.40
2023-05-03T16:55:49.020Z,5.40
2023-05-03T16:57:22.021Z,5.23
2023-05-03T16:58:54.794Z,4.90
2023-05-03T17:00:28.864Z,4.93
2023-05-03T17:02:01.582Z,3.00
2023-05-03T17:03:35.718Z,3.63
2023-05-03T17:05:10.353Z,4.90
2023-05-03T17:06:43.038Z,4.77
2023-05-03T17:08:15.781Z,4.63
2023-05-03T17:09:48.472Z,3.17
2023-05-03T17:11:22.241Z,4.70
2023-05-03T17:12:55.529Z,3.87
2023-05-03T17:14:28.274Z,3.70
2023-05-03T17:16:00.983Z,6.07
2023-05-03T17:17:33.897Z,3.27
2023-05-03T17:19:09.289Z,5.43
2023-05-03T17:20:42.854Z,6.37
2023-05-03T17:22:15.666Z,4.67
2023-05-03T17:23:48.368Z,3.93
2023-05-03T17:25:21.293Z,7.70
2023-05-03T17:26:55.079Z,3.83
2023-05-03T17:28:27.895Z,3.87
2023-05-03T17:30:00.826Z,5.70
2023-05-03T17:31:33.696Z,4.67
2023-05-03T17:33:06.468Z,3.77
2023-05-03T17:34:40.570Z,3.10
2023-05-03T17:36:13.334Z,4.17
2023-05-03T17:37:46.378Z,3.77
2023-05-03T17:39:19.101Z,5.40
2023-05-03T17:40:51.800Z,4.60
2023-05-03T17:42:24.493Z,6.03
2023-05-03T17:43:57.818Z,4.40
2023-05-03T17:45:29.563Z,4.93
2023-05-03T17:47:02.260Z,3.83
2023-05-03T17:48:35.204Z,4.47
2023-05-03T17:50:11.722Z,3.00
2023-05-03T17:51:45.073Z,5.57
2023-05-03T17:53:18.285Z,6.90
2023-05-03T17:54:52.295Z,5.67
2023-05-03T17:56:25.630Z,5.27
2023-05-03T17:57:58.301Z,4.17
2023-05-03T17:59:31.030Z,5.27
2023-05-03T18:01:03.725Z,2.80
2023-05-03T18:02:36.439Z,3.83
2023-05-03T18:04:09.986Z,7.40
2023-05-03T18:05:44.013Z,5.87
2023-05-03T18:07:16.863Z,3.30
2023-05-03T18:08:50.069Z,4.30
2023-05-03T18:10:22.910Z,4.00
2023-05-03T18:11:59.509Z,5.83
2023-05-03T18:13:33.136Z,4.80
2023-05-03T18:15:06.900Z,3.33
2023-05-03T18:16:39.775Z,3.63
2023-05-03T18:18:13.397Z,5.13
2023-05-03T18:19:46.198Z,3.87
2023-05-03T18:21:21.880Z,3.47
2023-05-03T18:22:54.607Z,4.57
2023-05-03T18:24:27.314Z,3.87
2023-05-03T18:26:00.633Z,5.63
2023-05-03T18:27:33.882Z,4.30
2023-05-03T18:29:06.563Z,3.77
2023-05-03T18:30:39.260Z,6.00
2023-05-03T18:32:12.411Z,4.70
2023-05-03T18:33:45.104Z,3.37
2023-05-03T18:35:18.399Z,3.73
2023-05-03T18:36:52.433Z,5.87
2023-05-03T18:38:25.178Z,4.40
2023-05-03T18:39:57.908Z,4.47
2023-05-03T18:41:31.744Z,5.40
2023-05-03T18:43:04.462Z,3.17
2023-05-03T18:44:39.479Z,4.50
2023-05-03T18:46:17.620Z,3.97
2023-05-03T18:47:50.420Z,4.40
2023-05-03T18:49:23.121Z,4.87
2023-05-03T18:50:55.842Z,4.03
2023-05-03T18:52:29.841Z,4.57
2023-05-03T18:54:02.535Z,4.80
2023-05-03T18:55:35.207Z,3.23
2023-05-03T18:57:07.885Z,5.20
2023-05-03T18:58:40.596Z,4.57
2023-05-03T19:00:14.128Z,8.93
2023-05-03T19:01:47.550Z,3.00
2023-05-03T19:03:20.609Z,4.07
2023-05-03T19:04:53.402Z,5.90
2023-05-03T19:06:27.194Z,4.73
2023-05-03T19:08:01.231Z,4.43
2023-05-03T19:09:33.911Z,4.93
2023-05-03T19:11:10.697Z,2.97
2023-05-03T19:12:44.216Z,5.80
2023-05-03T19:14:17.258Z,3.20
2023-05-03T19:15:50.036Z,6.00
2023-05-03T19:17:23.035Z,3.87
2023-05-03T19:18:55.998Z,5.90
2023-05-03T19:20:28.809Z,5.50
2023-05-03T19:22:01.621Z,5.23
2023-05-03T19:23:35.934Z,5.00
2023-05-03T19:25:09.516Z,5.03
2023-05-03T19:26:42.484Z,3.73
2023-05-03T19:28:15.542Z,4.30
2023-05-03T19:29:48.282Z,4.67
2023-05-03T19:31:21.008Z,3.03
2023-05-03T19:32:53.853Z,3.17
2023-05-03T19:34:27.872Z,4.07
2023-05-03T19:36:06.152Z,2.87
2023-05-03T19:37:38.887Z,4.23
2023-05-03T19:39:13.385Z,4.53
2023-05-03T19:40:56.290Z,3.13
2023-05-03T19:42:28.995Z,4.73
2023-05-03T19:44:01.690Z,4.33
2023-05-03T19:45:34.442Z,3.97
2023-05-03T19:47:07.141Z,3.30
2023-05-03T19:48:39.869Z,3.33
2023-05-03T19:50:12.980Z,3.67
2023-05-03T19:51:45.658Z,4.20
2023-05-03T19:53:18.380Z,3.73
2023-05-03T19:54:52.405Z,5.17
2023-05-03T19:56:25.999Z,4.77
2023-05-03T19:57:58.689Z,3.57
2023-05-03T19:59:31.548Z,3.50
2023-05-03T20:01:04.973Z,2.67
2023-05-03T20:02:37.903Z,6.10
2023-05-03T20:04:10.977Z,4.33
2023-05-03T20:05:43.738Z,4.27
2023-05-03T20:07:16.438Z,4.43
2023-05-03T20:08:50.960Z,2.90
2023-05-03T20:10:25.017Z,4.90
2023-05-03T20:11:59.547Z,4.77
2023-05-03T20:13:32.378Z,3.23
2023-05-03T20:15:05.752Z,3.23
2023-05-03T20:16:39.913Z,3.60
2023-05-03T20:18:12.694Z,3.07
2023-05-03T20:19:45.443Z,2.33
2023-05-03T20:21:18.135Z,2.63
2023-05-03T20:22:51.541Z,2.77
2023-05-03T20:24:24.265Z,3.97
2023-05-03T20:25:58.302Z,3.73
2023-05-03T20:27:31.030Z,2.97
2023-05-03T20:29:04.181Z,2.97
2023-05-03T20:30:37.093Z,3.30
2023-05-03T20:32:09.939Z,3.97
2023-05-03T20:33:42.741Z,4.10
2023-05-03T20:35:15.476Z,5.30
2023-05-03T20:36:48.213Z,5.43
2023-05-03T20:38:21.120Z,3.30
2023-05-03T20:39:53.802Z,4.47
2023-05-03T20:41:27.850Z,2.53